createdAt,value
2017-07-19T00:01:27.065Z,4.63
2017-07-19T00:03:57.901Z,3.70
2017-07-19T00:06:29.573Z,4.60
2017-07-19T00:08:59.287Z,3.80
2017-07-19T00:11:29.093Z,4.10
2017-07-19T00:14:01.092Z,4.60
2017-07-19T00:16:29.778Z,4.40
2017-07-19T00:18:57.113Z,4.00
2017-07-19T00:21:25.840Z,4.97
2017-07-19T00:23:55.833Z,5.00
2017-07-19T00:26:25.173Z,4.83
2017-07-19T00:28:56.368Z,4.53
2017-07-19T00:31:24.154Z,4.60
2017-07-19T00:33:53.912Z,4.10
2017-07-19T00:36:23.721Z,4.43
2017-07-19T00:38:53.710Z,5.03
2017-07-19T00:41:23.144Z,5.10
2017-07-19T00:43:53.919Z,4.30
2017-07-19T00:46:23.317Z,5.70
2017-07-19T00:48:52.963Z,4.87
2017-07-19T00:51:23.686Z,6.30
2017-07-19T00:53:53.726Z,4.23
2017-07-19T00:56:25.440Z,4.77
2017-07-19T00:58:53.837Z,4.73
2017-07-19T01:01:23.679Z,4.60
2017-07-19T01:03:54.170Z,4.67
2017-07-19T01:06:24.228Z,4.80
2017-07-19T01:08:52.664Z,5.10
2017-07-19T01:11:21.910Z,5.53
2017-07-19T01:13:50.399Z,5.50
2017-07-19T01:16:20.066Z,5.40
2017-07-19T01:18:49.544Z,5.70
2017-07-19T01:21:19.316Z,6.13
2017-07-19T01:23:48.558Z,5.43
2017-07-19T01:26:17.037Z,6.00
2017-07-19T01:28:47.154Z,5.90
2017-07-19T01:31:16.831Z,4.93
2017-07-19T01:33:45.961Z,6.37
2017-07-19T01:36:15.843Z,6.30
2017-07-19T01:38:45.495Z,5.60
2017-07-19T01:41:13.337Z,5.23
2017-07-19T01:43:43.237Z,5.80
2017-07-19T01:46:13.187Z,6.30
2017-07-19T01:48:43.786Z,5.87
2017-07-19T01:51:15.050Z,5.67
2017-07-19T01:53:46.998Z,5.07
2017-07-19T01:56:15.582Z,5.47
2017-07-19T01:58:45.628Z,5.50
2017-07-19T02:01:15.890Z,6.33
2017-07-19T02:03:45.728Z,6.60
2017-07-19T02:06:15.321Z,5.90
2017-07-19T02:08:45.161Z,7.53
2017-07-19T02:11:18.672Z,6.43
2017-07-19T02:13:48.479Z,6.40
2017-07-19T02:16:17.133Z,7.37
2017-07-19T02:18:46.443Z,5.73
2017-07-19T02:21:15.720Z,6.27
2017-07-19T02:23:48.309Z,6.90
2017-07-19T02:26:16.020Z,6.50
2017-07-19T02:28:45.942Z,6.73
2017-07-19T02:31:15.953Z,6.80
2017-07-19T02:33:44.415Z,6.20
2017-07-19T02:36:14.009Z,6.63
2017-07-19T02:38:42.115Z,6.70
2017-07-19T02:41:11.293Z,6.23
2017-07-19T02:43:40.555Z,7.30
2017-07-19T02:46:09.281Z,7.00
2017-07-19T02:48:39.514Z,7.97
2017-07-19T02:51:10.056Z,6.63
2017-07-19T02:53:40.297Z,8.73
2017-07-19T02:56:11.832Z,7.17
2017-07-19T02:58:39.714Z,7.20
2017-07-19T03:01:07.786Z,7.80
2017-07-19T03:03:36.901Z,6.50
2017-07-19T03:06:06.326Z,7.37
2017-07-19T03:08:35.778Z,7.87
2017-07-19T03:11:05.538Z,7.57
2017-07-19T03:13:34.696Z,7.50
2017-07-19T03:16:01.658Z,7.10
2017-07-19T03:18:30.858Z,8.10
2017-07-19T03:20:59.324Z,7.17
2017-07-19T03:23:29.395Z,7.03
2017-07-19T03:25:59.007Z,7.23
2017-07-19T03:28:28.519Z,7.90
2017-07-19T03:30:57.979Z,7.80
2017-07-19T03:33:26.196Z,7.50
2017-07-19T03:35:54.800Z,7.70
2017-07-19T03:38:23.208Z,7.90
2017-07-19T03:40:49.901Z,8.53
2017-07-19T03:43:18.119Z,8.53
2017-07-19T03:45:47.806Z,8.43
2017-07-19T03:48:15.188Z,7.80
2017-07-19T03:50:43.770Z,7.80
2017-07-19T03:53:10.990Z,7.83
2017-07-19T03:55:37.640Z,8.33
2017-07-19T03:58:04.987Z,8.07
2017-07-19T04:00:33.239Z,8.00
2017-07-19T04:03:02.928Z,8.80
2017-07-19T04:05:31.035Z,8.10
2017-07-19T04:07:57.687Z,9.10
2017-07-19T04:10:24.652Z,9.23
2017-07-19T04:12:52.405Z,7.77
2017-07-19T04:15:19.087Z,8.40
2017-07-19T04:17:45.708Z,7.57
2017-07-19T04:20:13.447Z,9.00
2017-07-19T04:22:40.687Z,7.93
2017-07-19T04:25:07.296Z,8.10
2017-07-19T04:27:37.090Z,8.23
2017-07-19T04:30:04.082Z,8.60
2017-07-19T04:32:33.010Z,8.70
2017-07-19T04:35:03.934Z,8.77
2017-07-19T04:37:31.746Z,8.20
2017-07-19T04:39:58.766Z,8.20
2017-07-19T04:42:25.385Z,8.60
2017-07-19T04:44:54.128Z,8.87
2017-07-19T04:47:21.401Z,8.43
2017-07-19T04:49:50.447Z,8.90
2017-07-19T04:52:17.103Z,9.37
2017-07-19T04:54:43.707Z,9.57
2017-07-19T04:57:11.151Z,8.90
2017-07-19T04:59:37.762Z,9.30
2017-07-19T05:02:05.424Z,8.70
2017-07-19T05:04:34.618Z,8.77
2017-07-19T05:07:04.043Z,8.40
2017-07-19T05:09:32.832Z,8.47
2017-07-19T05:11:59.468Z,7.90
2017-07-19T05:14:30.304Z,8.23
2017-07-19T05:17:01.677Z,9.30
2017-07-19T05:19:31.280Z,9.03
2017-07-19T05:22:00.819Z,8.10
2017-07-19T05:24:31.924Z,7.90
2017-07-19T05:27:00.319Z,7.43
2017-07-19T05:29:28.747Z,8.90
2017-07-19T05:31:57.543Z,9.47
2017-07-19T05:34:28.025Z,10.17
2017-07-19T05:36:57.540Z,9.67
2017-07-19T05:39:26.412Z,9.70
2017-07-19T05:41:55.023Z,8.60
2017-07-19T05:44:24.333Z,9.00
2017-07-19T05:46:53.102Z,8.80
2017-07-19T05:49:23.463Z,8.47
2017-07-19T05:51:53.391Z,9.27
2017-07-19T05:54:22.149Z,7.77
2017-07-19T05:56:50.950Z,8.20
2017-07-19T05:59:20.459Z,7.23
2017-07-19T06:01:50.487Z,8.57
2017-07-19T06:04:20.319Z,9.10
2017-07-19T06:06:49.604Z,7.53
2017-07-19T06:09:16.830Z,7.90
2017-07-19T06:11:46.254Z,8.40
2017-07-19T06:14:13.674Z,7.70
2017-07-19T06:16:43.916Z,8.30
2017-07-19T06:19:12.776Z,7.63
2017-07-19T06:21:41.067Z,7.53
2017-07-19T06:24:10.619Z,7.20
2017-07-19T06:26:40.079Z,7.53
2017-07-19T06:29:09.010Z,7.50
2017-07-19T06:31:38.218Z,7.47
2017-07-19T06:34:07.699Z,6.47
2017-07-19T06:36:40.331Z,7.20
2017-07-19T06:39:09.836Z,6.43
2017-07-19T06:41:39.401Z,6.47
2017-07-19T06:44:07.628Z,6.10
2017-07-19T06:46:35.643Z,6.43
2017-07-19T06:49:03.636Z,7.43
2017-07-19T06:51:34.694Z,7.80
2017-07-19T06:54:03.009Z,6.60
2017-07-19T06:56:31.035Z,6.20
2017-07-19T06:59:00.095Z,5.60
2017-07-19T07:01:29.731Z,6.20
2017-07-19T07:04:02.450Z,6.00
2017-07-19T07:06:32.002Z,5.50
2017-07-19T07:09:02.423Z,7.17
2017-07-19T07:11:29.896Z,5.37
2017-07-19T07:13:58.895Z,5.83
2017-07-19T07:16:25.502Z,6.40
2017-07-19T07:18:52.158Z,5.57
2017-07-19T07:21:18.789Z,5.53
2017-07-19T07:23:45.943Z,6.50
2017-07-19T07:26:12.545Z,5.80
2017-07-19T07:28:40.292Z,5.83
2017-07-19T07:31:09.967Z,5.47
2017-07-19T07:33:37.670Z,5.60
2017-07-19T07:36:06.679Z,5.63
2017-07-19T07:38:34.873Z,5.43
2017-07-19T07:41:03.469Z,6.10
2017-07-19T07:43:34.913Z,6.20
2017-07-19T07:46:03.207Z,6.30
2017-07-19T07:48:32.910Z,5.80
2017-07-19T07:51:02.583Z,6.20
2017-07-19T07:53:30.827Z,6.70
2017-07-19T07:55:59.734Z,5.47
2017-07-19T07:58:29.363Z,6.07
2017-07-19T08:00:58.061Z,5.97
2017-07-19T08:03:28.044Z,6.67
2017-07-19T08:05:55.382Z,5.60
2017-07-19T08:08:22.002Z,5.53
2017-07-19T08:10:51.172Z,5.83
2017-07-19T08:13:20.433Z,6.10
2017-07-19T08:15:49.727Z,5.53
2017-07-19T08:18:18.910Z,6.03
2017-07-19T08:20:48.409Z,6.10
2017-07-19T08:23:16.909Z,5.97
2017-07-19T08:25:49.765Z,6.27
2017-07-19T08:28:17.284Z,6.00
2017-07-19T08:30:45.538Z,5.83
2017-07-19T08:33:14.012Z,6.10
2017-07-19T08:35:43.006Z,5.40
2017-07-19T08:38:12.426Z,5.80
2017-07-19T08:40:41.281Z,5.87
2017-07-19T08:43:09.377Z,6.00
2017-07-19T08:45:38.737Z,6.40
2017-07-19T08:48:09.186Z,7.80
2017-07-19T08:50:37.575Z,5.07
2017-07-19T08:53:08.094Z,5.17
2017-07-19T08:55:38.743Z,6.37
2017-07-19T08:58:10.598Z,5.57
2017-07-19T09:00:40.962Z,5.67
2017-07-19T09:03:10.946Z,5.40
2017-07-19T09:05:39.371Z,5.47
2017-07-19T09:08:08.844Z,5.20
2017-07-19T09:10:38.893Z,5.70
2017-07-19T09:13:07.328Z,6.40
2017-07-19T09:15:36.899Z,5.90
2017-07-19T09:18:06.586Z,6.70
2017-07-19T09:20:36.658Z,7.23
2017-07-19T09:23:05.939Z,5.83
2017-07-19T09:25:35.135Z,5.60
2017-07-19T09:28:05.454Z,6.17
2017-07-19T09:30:34.023Z,6.50
2017-07-19T09:33:02.864Z,5.83
2017-07-19T09:35:33.052Z,5.63
2017-07-19T09:38:05.181Z,6.47
2017-07-19T09:40:35.631Z,5.90
2017-07-19T09:43:04.206Z,5.90
2017-07-19T09:45:33.492Z,6.00
2017-07-19T09:48:03.438Z,6.00
2017-07-19T09:50:30.104Z,5.40
2017-07-19T09:52:56.732Z,6.03
2017-07-19T09:55:24.187Z,4.90
2017-07-19T09:57:50.842Z,5.87
2017-07-19T10:00:17.464Z,5.70
2017-07-19T10:02:44.112Z,4.90
2017-07-19T10:05:10.724Z,5.57
2017-07-19T10:07:37.358Z,5.90
2017-07-19T10:10:04.012Z,4.53
2017-07-19T10:12:31.089Z,4.10
2017-07-19T10:14:57.704Z,4.63
2017-07-19T10:17:25.548Z,4.97
2017-07-19T10:19:52.164Z,4.67
2017-07-19T10:22:19.152Z,5.10
2017-07-19T10:24:45.769Z,5.40
2017-07-19T10:27:12.398Z,5.00
2017-07-19T10:29:39.059Z,4.93
2017-07-19T10:32:05.695Z,4.70
2017-07-19T10:34:32.333Z,5.10
2017-07-19T10:36:59.466Z,4.50
2017-07-19T10:39:26.123Z,5.20
2017-07-19T10:41:52.750Z,5.40
2017-07-19T10:44:20.280Z,5.47
2017-07-19T10:46:49.495Z,4.90
2017-07-19T10:49:16.488Z,5.27
2017-07-19T10:51:44.561Z,5.43
2017-07-19T10:54:11.268Z,5.53
2017-07-19T10:56:37.899Z,5.00
2017-07-19T10:59:05.716Z,4.53
2017-07-19T11:01:32.353Z,5.77
2017-07-19T11:03:58.987Z,4.70
2017-07-19T11:06:25.601Z,5.77
2017-07-19T11:08:52.240Z,5.43
2017-07-19T11:11:18.859Z,5.87
2017-07-19T11:13:45.479Z,5.33
2017-07-19T11:16:12.118Z,5.87
2017-07-19T11:18:38.721Z,5.40
2017-07-19T11:21:05.406Z,5.93
2017-07-19T11:23:32.014Z,5.70
2017-07-19T11:25:58.663Z,5.60
2017-07-19T11:28:25.298Z,5.47
2017-07-19T11:30:51.931Z,5.10
2017-07-19T11:33:18.579Z,5.83
2017-07-19T11:35:45.219Z,5.67
2017-07-19T11:38:11.858Z,5.40
2017-07-19T11:40:38.487Z,5.70
2017-07-19T11:43:05.660Z,5.43
2017-07-19T11:45:32.332Z,5.57
2017-07-19T11:48:00.880Z,6.20
2017-07-19T11:50:27.509Z,5.17
2017-07-19T11:52:55.408Z,5.30
2017-07-19T11:55:22.068Z,5.33
2017-07-19T11:57:48.703Z,5.57
2017-07-19T12:00:15.363Z,4.67
2017-07-19T12:02:41.995Z,5.57
2017-07-19T12:05:11.847Z,5.80
2017-07-19T12:07:38.495Z,5.60
2017-07-19T12:10:08.863Z,5.30
2017-07-19T12:12:36.101Z,5.23
2017-07-19T12:15:02.757Z,5.40
2017-07-19T12:17:29.397Z,4.20
2017-07-19T12:19:56.013Z,5.73
2017-07-19T12:22:22.665Z,5.07
2017-07-19T12:24:49.527Z,5.10
2017-07-19T12:29:42.807Z,5.30
2017-07-19T12:32:09.431Z,6.27
2017-07-19T12:34:36.046Z,6.13
2017-07-19T12:37:02.669Z,4.97
2017-07-19T12:39:29.292Z,4.23
2017-07-19T12:41:58.844Z,5.00
2017-07-19T12:44:25.479Z,4.77
2017-07-19T12:46:52.120Z,6.27
2017-07-19T12:49:22.479Z,5.90
2017-07-19T12:51:49.904Z,5.63
2017-07-19T12:54:20.460Z,6.07
2017-07-19T12:56:50.095Z,6.53
2017-07-19T12:59:19.808Z,5.67
2017-07-19T13:01:48.834Z,5.27
2017-07-19T13:04:17.676Z,5.90
2017-07-19T13:06:47.785Z,6.17
2017-07-19T13:09:14.494Z,6.37
2017-07-19T13:11:41.134Z,5.77
2017-07-19T13:14:11.359Z,6.20
2017-07-19T13:16:41.975Z,5.80
2017-07-19T13:19:10.442Z,6.37
2017-07-19T13:21:40.087Z,5.43
2017-07-19T13:24:08.475Z,5.80
2017-07-19T13:26:35.108Z,5.40
2017-07-19T13:29:03.541Z,5.57
2017-07-19T13:31:34.482Z,5.70
2017-07-19T13:34:01.138Z,5.13
2017-07-19T13:36:27.803Z,6.00
2017-07-19T13:38:54.497Z,6.20
2017-07-19T13:41:27.661Z,7.83
2017-07-19T13:43:55.615Z,7.30
2017-07-19T13:46:24.346Z,7.43
2017-07-19T13:48:54.230Z,5.73
2017-07-19T13:51:22.414Z,5.97
2017-07-19T13:53:50.889Z,5.07
2017-07-19T13:56:20.744Z,5.20
2017-07-19T13:58:50.821Z,5.57
2017-07-19T14:01:21.546Z,6.43
2017-07-19T14:03:51.012Z,6.00
2017-07-19T14:06:20.821Z,6.53
2017-07-19T14:08:49.269Z,5.73
2017-07-19T14:11:19.402Z,5.30
2017-07-19T14:13:52.643Z,6.47
2017-07-19T14:16:24.373Z,7.47
2017-07-19T14:18:53.903Z,7.93
2017-07-19T14:21:25.371Z,6.73
2017-07-19T14:23:54.159Z,7.77
2017-07-19T14:26:23.037Z,7.50
2017-07-19T14:28:50.826Z,8.07
2017-07-19T14:31:20.739Z,7.50
2017-07-19T14:33:50.170Z,7.17
2017-07-19T14:36:20.880Z,8.80
2017-07-19T14:38:49.440Z,8.20
2017-07-19T14:41:17.082Z,8.60
2017-07-19T14:43:43.699Z,8.23
2017-07-19T14:46:10.337Z,7.37
2017-07-19T14:48:36.984Z,9.17
2017-07-19T14:51:05.631Z,7.87
2017-07-19T14:53:32.279Z,8.03
2017-07-19T14:55:58.924Z,9.97
2017-07-19T14:58:25.568Z,7.87
2017-07-19T15:00:52.925Z,6.90
2017-07-19T15:03:19.547Z,6.67
2017-07-19T15:05:46.179Z,8.13
2017-07-19T15:08:12.841Z,6.80
2017-07-19T15:10:39.490Z,6.73
2017-07-19T15:13:06.115Z,8.70
2017-07-19T15:15:32.756Z,7.67
2017-07-19T15:17:59.417Z,7.40
2017-07-19T15:20:26.047Z,8.13
2017-07-19T15:22:52.732Z,6.90
2017-07-19T15:25:19.374Z,7.57
2017-07-19T15:27:46.026Z,6.43
2017-07-19T15:30:16.682Z,7.37
2017-07-19T15:32:46.574Z,8.47
2017-07-19T15:35:16.010Z,7.57
2017-07-19T15:37:46.323Z,10.17
2017-07-19T15:40:14.466Z,6.73
2017-07-19T15:42:44.974Z,8.00
2017-07-19T15:45:13.949Z,7.20
2017-07-19T15:47:42.375Z,8.17
2017-07-19T15:50:10.178Z,8.27
2017-07-19T15:52:39.165Z,8.90
2017-07-19T15:55:07.812Z,9.40
2017-07-19T15:57:37.476Z,8.37
2017-07-19T16:00:06.988Z,7.77
2017-07-19T16:02:35.020Z,6.90
2017-07-19T16:05:03.143Z,7.17
2017-07-19T16:07:33.419Z,6.83
2017-07-19T16:10:01.879Z,7.97
2017-07-19T16:12:31.802Z,7.73
2017-07-19T16:15:02.013Z,7.57
2017-07-19T16:17:31.447Z,7.73
2017-07-19T16:19:58.382Z,9.07
2017-07-19T16:22:27.404Z,8.30
2017-07-19T16:24:55.323Z,7.60
2017-07-19T16:27:23.927Z,6.53
2017-07-19T16:29:52.281Z,7.20
2017-07-19T16:32:19.305Z,6.63
2017-07-19T16:34:49.824Z,6.70
2017-07-19T16:37:17.468Z,7.00
2017-07-19T16:39:46.399Z,6.40
2017-07-19T16:42:17.140Z,6.70
2017-07-19T16:44:44.364Z,6.73
2017-07-19T16:47:12.395Z,7.27
2017-07-19T16:49:43.790Z,7.40
2017-07-19T16:52:11.763Z,7.27
2017-07-19T16:54:41.130Z,7.40
2017-07-19T16:57:09.676Z,5.50
2017-07-19T16:59:38.488Z,6.83
2017-07-19T17:02:06.563Z,7.10
2017-07-19T17:04:35.267Z,6.93
2017-07-19T17:07:05.318Z,5.97
2017-07-19T17:09:33.657Z,6.50
2017-07-19T17:12:01.893Z,7.00
2017-07-19T17:14:28.546Z,6.77
2017-07-19T17:16:57.184Z,5.80
2017-07-19T17:19:26.588Z,6.67
2017-07-19T17:21:53.212Z,6.63
2017-07-19T17:24:19.852Z,6.13
2017-07-19T17:26:46.517Z,6.53
2017-07-19T17:29:13.168Z,5.77
2017-07-19T17:31:39.799Z,6.57
2017-07-19T17:34:06.431Z,5.80
2017-07-19T17:36:33.621Z,6.43
2017-07-19T17:39:00.934Z,6.00
2017-07-19T17:41:27.575Z,7.10
2017-07-19T17:43:54.896Z,5.50
2017-07-19T17:46:21.569Z,5.80
2017-07-19T17:48:48.190Z,5.07
2017-07-19T17:51:14.847Z,5.63
2017-07-19T17:53:41.517Z,5.00
2017-07-19T17:56:08.130Z,6.00
2017-07-19T17:58:34.761Z,5.57
2017-07-19T18:01:01.426Z,5.57
2017-07-19T18:03:28.088Z,5.80
2017-07-19T18:05:55.552Z,5.70
2017-07-19T18:08:22.181Z,5.40
2017-07-19T18:10:48.835Z,5.13
2017-07-19T18:13:16.275Z,5.60
2017-07-19T18:15:43.567Z,5.80
2017-07-19T18:18:10.900Z,5.97
2017-07-19T18:20:37.523Z,5.33
2017-07-19T18:23:04.847Z,5.53
2017-07-19T18:25:31.484Z,6.27
2017-07-19T18:27:58.231Z,6.80
2017-07-19T18:30:25.825Z,5.97
2017-07-19T18:32:52.477Z,5.60
2017-07-19T18:35:19.142Z,6.47
2017-07-19T18:37:47.699Z,5.73
2017-07-19T18:40:16.293Z,6.07
2017-07-19T18:42:44.118Z,6.47
2017-07-19T18:45:12.535Z,5.20
2017-07-19T18:47:39.180Z,6.80
2017-07-19T18:50:07.033Z,6.43
2017-07-19T18:52:37.153Z,6.63
2017-07-19T18:55:05.014Z,6.73
2017-07-19T18:57:32.295Z,7.00
2017-07-19T19:00:02.933Z,7.50
2017-07-19T19:02:30.142Z,7.40
2017-07-19T19:04:59.955Z,5.63
2017-07-19T19:07:29.434Z,7.40
2017-07-19T19:09:58.215Z,6.60
2017-07-19T19:12:29.247Z,6.70
2017-07-19T19:14:57.762Z,6.93
2017-07-19T19:17:27.085Z,6.07
2017-07-19T19:19:55.506Z,8.00
2017-07-19T19:22:23.615Z,6.97
2017-07-19T19:24:53.170Z,6.30
2017-07-19T19:27:22.602Z,6.90
2017-07-19T19:29:53.210Z,6.93
2017-07-19T19:32:23.629Z,6.47
2017-07-19T19:34:51.494Z,6.90
2017-07-19T19:37:20.479Z,7.50
2017-07-19T19:39:47.878Z,6.83
2017-07-19T19:42:17.546Z,7.00
2017-07-19T19:44:48.527Z,6.50
2017-07-19T19:47:20.257Z,5.80
2017-07-19T19:49:49.035Z,7.80
2017-07-19T19:52:19.628Z,7.33
2017-07-19T19:54:49.092Z,6.37
2017-07-19T19:57:19.497Z,5.90
2017-07-19T19:59:47.333Z,8.80
2017-07-19T20:02:17.789Z,7.37
2017-07-19T20:04:49.006Z,6.40
2017-07-19T20:07:17.987Z,6.47
2017-07-19T20:09:49.349Z,6.00
2017-07-19T20:12:18.192Z,7.10
2017-07-19T20:14:45.476Z,6.33
2017-07-19T20:17:13.599Z,6.83
2017-07-19T20:19:43.904Z,7.30
2017-07-19T20:22:11.857Z,8.30
2017-07-19T20:24:42.106Z,8.60
2017-07-19T20:27:11.671Z,8.37
2017-07-19T20:29:41.955Z,7.77
2017-07-19T20:32:11.606Z,7.80
2017-07-19T20:34:40.217Z,8.67
2017-07-19T20:37:09.765Z,7.70
2017-07-19T20:39:38.759Z,7.23
2017-07-19T20:42:07.814Z,7.87
2017-07-19T20:44:35.599Z,8.80
2017-07-19T20:47:04.218Z,7.03
2017-07-19T20:49:34.135Z,7.40
2017-07-19T20:52:03.568Z,8.20
2017-07-19T20:54:32.748Z,6.57
2017-07-19T20:57:03.020Z,6.60
2017-07-19T20:59:32.930Z,7.97
2017-07-19T21:02:01.278Z,7.57
2017-07-19T21:04:30.189Z,8.90
2017-07-19T21:07:00.161Z,8.47
2017-07-19T21:09:28.867Z,8.50
2017-07-19T21:11:59.161Z,8.33
2017-07-19T21:14:26.335Z,7.77
2017-07-19T21:16:56.713Z,8.83
2017-07-19T21:19:28.216Z,9.33
2017-07-19T21:21:59.209Z,8.97
2017-07-19T21:24:28.363Z,8.77
2017-07-19T21:26:57.256Z,8.27
2017-07-19T21:29:25.744Z,9.10
2017-07-19T21:31:56.408Z,8.80
2017-07-19T21:34:26.037Z,8.20
2017-07-19T21:36:56.553Z,7.20
2017-07-19T21:39:25.387Z,8.70
2017-07-19T21:41:57.472Z,8.63
2017-07-19T21:44:30.168Z,9.47
2017-07-19T21:46:59.160Z,9.33
2017-07-19T21:49:31.218Z,8.27
2017-07-19T21:52:03.210Z,8.03
2017-07-19T21:54:32.671Z,8.93
2017-07-19T21:57:02.893Z,9.10
2017-07-19T21:59:32.835Z,8.60
2017-07-19T22:02:01.328Z,8.23
2017-07-19T22:04:29.671Z,7.23
2017-07-19T22:06:58.088Z,8.97
2017-07-19T22:09:29.849Z,8.07
2017-07-19T22:11:59.193Z,6.83
2017-07-19T22:14:31.089Z,7.57
2017-07-19T22:17:00.838Z,7.97
2017-07-19T22:19:30.224Z,6.63
2017-07-19T22:22:00.458Z,7.17
2017-07-19T22:24:29.996Z,7.20
2017-07-19T22:27:00.013Z,6.70
2017-07-19T22:29:28.936Z,6.80
2017-07-19T22:31:58.919Z,6.70
2017-07-19T22:34:27.189Z,5.67
2017-07-19T22:36:58.208Z,5.90
2017-07-19T22:39:30.217Z,5.90
2017-07-19T22:42:00.922Z,5.73
2017-07-19T22:44:30.368Z,5.43
2017-07-19T22:47:02.933Z,6.00
2017-07-19T22:49:31.412Z,5.30
2017-07-19T22:52:01.179Z,6.33
2017-07-19T22:54:31.966Z,4.90
2017-07-19T22:57:00.547Z,6.47
2017-07-19T22:59:30.142Z,6.23
2017-07-19T23:02:00.212Z,6.27
2017-07-19T23:04:32.089Z,5.37
2017-07-19T23:07:02.494Z,6.80
2017-07-19T23:09:31.486Z,5.80
2017-07-19T23:12:00.538Z,6.90
2017-07-19T23:14:30.275Z,7.57
2017-07-19T23:17:00.683Z,5.50
2017-07-19T23:19:28.760Z,6.93
2017-07-19T23:21:58.187Z,5.40
2017-07-19T23:24:26.398Z,5.60
2017-07-19T23:26:55.923Z,5.40
2017-07-19T23:29:25.869Z,5.73
2017-07-19T23:31:56.107Z,5.30
2017-07-19T23:34:25.386Z,5.60
2017-07-19T23:36:55.258Z,6.20
2017-07-19T23:39:25.147Z,6.00
2017-07-19T23:41:55.684Z,4.83
2017-07-19T23:44:24.346Z,5.50
2017-07-19T23:46:54.952Z,5.30
2017-07-19T23:49:23.566Z,5.87
2017-07-19T23:51:55.252Z,5.80
2017-07-19T23:54:22.486Z,6.40
2017-07-19T23:56:53.140Z,6.63
2017-07-19T23:59:23.862Z,6.20
